createdAt,value
2023-04-01T00:01:40.481Z,98343.47
2023-04-01T00:04:09.138Z,98342.88
2023-04-01T00:06:37.729Z,98343.09
2023-04-01T00:09:06.299Z,98338.81
2023-04-01T00:11:35.180Z,98342.28
2023-04-01T00:14:03.739Z,98337.78
2023-04-01T00:16:32.485Z,98340.44
2023-04-01T00:19:01.915Z,98342.28
2023-04-01T00:21:30.488Z,98344.13
2023-04-01T00:23:58.932Z,98334.53
2023-04-01T00:26:27.966Z,98339.22
2023-04-01T00:28:56.557Z,98350.09
2023-04-01T00:31:25.173Z,98344.78
2023-04-01T00:33:54.435Z,98337.00
2023-04-01T00:36:24.363Z,98344.97
2023-04-01T00:38:52.994Z,98343.34
2023-04-01T00:41:23.050Z,98341.75
2023-04-01T00:43:54.301Z,98335.81
2023-04-01T00:46:22.615Z,98337.88
2023-04-01T00:48:57.522Z,98333.56
2023-04-01T00:51:31.905Z,98334.81
2023-04-01T00:54:04.997Z,98335.06
2023-04-01T00:56:49.709Z,98332.41
2023-04-01T00:59:26.371Z,98334.81
2023-04-01T01:01:54.826Z,98334.63
2023-04-01T01:04:33.435Z,98332.75
2023-04-01T01:07:29.805Z,98333.81
2023-04-01T01:10:15.392Z,98340.16
2023-04-01T01:13:17.575Z,98333.41
2023-04-01T01:16:00.408Z,98334.44
2023-04-01T01:19:17.468Z,98339.31
2023-04-01T01:22:36.431Z,98335.25
2023-04-01T01:25:21.574Z,98327.28
2023-04-01T01:28:37.714Z,98332.78
2023-04-01T01:34:17.778Z,98327.28
2023-04-01T01:36:48.364Z,98329.34
2023-04-01T01:39:17.048Z,98327.47
2023-04-01T01:41:48.014Z,98322.16
2023-04-01T01:44:18.612Z,98327.09
2023-04-01T01:46:48.279Z,98322.56
2023-04-01T01:49:18.711Z,98325.22
2023-04-01T01:51:46.864Z,98331.34
2023-04-01T01:54:24.273Z,98328.69
2023-04-01T01:57:11.502Z,98329.50
2023-04-01T01:59:42.589Z,98325.81
2023-04-01T02:02:15.434Z,98328.25
2023-04-01T02:04:46.744Z,98325.59
2023-04-01T02:07:33.136Z,98329.91
2023-04-01T02:10:02.224Z,98325.41
2023-04-01T02:12:32.508Z,98324.56
2023-04-01T02:15:15.414Z,98331.53
2023-04-01T02:17:48.197Z,98333.97
2023-04-01T02:20:25.573Z,98325.78
2023-04-01T02:22:57.036Z,98332.50
2023-04-01T02:25:32.982Z,98331.50
2023-04-01T02:28:02.340Z,98326.75
2023-04-01T02:30:34.242Z,98320.63
2023-04-01T02:33:02.905Z,98325.75
2023-04-01T02:35:36.032Z,98331.63
2023-04-01T02:38:04.658Z,98331.63
2023-04-01T02:40:49.554Z,98334.31
2023-04-01T02:43:21.963Z,98340.44
2023-04-01T02:45:50.639Z,98337.78
2023-04-01T02:48:18.855Z,98342.06
2023-04-01T02:50:47.142Z,98343.69
2023-04-01T02:53:15.631Z,98346.16
2023-04-01T02:55:44.094Z,98340.81
2023-04-01T02:58:12.618Z,98343.69
2023-04-01T03:00:42.123Z,98338.38
2023-04-01T03:03:14.639Z,98343.47
2023-04-01T03:05:43.350Z,98348.56
2023-04-01T03:08:12.868Z,98349.63
2023-04-01T03:10:41.006Z,98345.31
2023-04-01T03:13:09.263Z,98344.31
2023-04-01T03:15:37.381Z,98348.41
2023-04-01T03:18:06.142Z,98352.91
2023-04-01T03:20:34.277Z,98343.31
2023-04-01T03:23:02.410Z,98346.19
2023-04-01T03:25:31.968Z,98342.13
2023-04-01T03:28:00.811Z,98356.44
2023-04-01T03:30:31.085Z,98349.72
2023-04-01T03:33:00.770Z,98344.81
2023-04-01T03:35:29.617Z,98354.03
2023-04-01T03:37:58.494Z,98349.97
2023-04-01T03:40:27.342Z,98365.91
2023-04-01T03:42:57.127Z,98365.09
2023-04-01T03:45:25.729Z,98364.69
2023-04-01T03:47:54.287Z,98367.16
2023-04-01T03:50:22.447Z,98366.56
2023-04-01T03:52:52.235Z,98369.44
2023-04-01T03:55:21.392Z,98365.94
2023-04-01T03:57:49.906Z,98365.94
2023-04-01T04:00:18.785Z,98366.38
2023-04-01T04:02:47.277Z,98370.69
2023-04-01T04:05:16.272Z,98378.03
2023-04-01T04:07:44.367Z,98372.94
2023-04-01T04:10:12.979Z,98377.44
2023-04-01T04:12:41.494Z,98372.34
2023-04-01T04:15:11.499Z,98375.00
2023-04-01T04:17:39.740Z,98370.72
2023-04-01T04:20:09.044Z,98380.31
2023-04-01T04:22:40.316Z,98375.22
2023-04-01T04:25:09.354Z,98384.00
2023-04-01T04:27:37.917Z,98382.38
2023-04-01T04:30:08.777Z,98384.19
2023-04-01T04:32:37.172Z,98388.69
2023-04-01T04:35:07.434Z,98395.06
2023-04-01T04:37:35.673Z,98393.22
2023-04-01T04:40:04.286Z,98386.03
2023-04-01T04:42:32.815Z,98391.34
2023-04-01T04:45:03.528Z,98396.66
2023-04-01T04:47:31.696Z,98399.56
2023-04-01T04:49:59.828Z,98398.31
2023-04-01T04:52:28.289Z,98397.28
2023-04-01T04:54:56.765Z,98402.38
2023-04-01T04:57:24.963Z,98399.72
2023-04-01T04:59:53.061Z,98400.34
2023-04-01T05:02:21.350Z,98404.59
2023-04-01T05:04:52.736Z,98398.50
2023-04-01T05:07:21.516Z,98408.09
2023-04-01T05:09:50.050Z,98405.44
2023-04-01T05:12:18.235Z,98398.28
2023-04-01T05:14:49.505Z,98405.22
2023-04-01T05:17:17.979Z,98403.41
2023-04-01T05:19:46.126Z,98407.88
2023-04-01T05:22:14.296Z,98419.34
2023-04-01T05:24:42.759Z,98418.28
2023-04-01T05:27:19.579Z,98425.25
2023-04-01T05:29:48.063Z,98421.16
2023-04-01T05:32:17.040Z,98418.88
2023-04-01T05:34:45.447Z,98421.69
2023-04-01T05:37:13.929Z,98418.19
2023-04-01T05:39:45.217Z,98423.69
2023-04-01T05:42:16.801Z,98421.19
2023-04-01T05:44:48.286Z,98420.34
2023-04-01T05:47:19.190Z,98427.88
2023-04-01T05:49:47.273Z,98425.84
2023-04-01T05:52:17.700Z,98429.31
2023-04-01T05:54:45.876Z,98427.69
2023-04-01T05:57:16.962Z,98431.16
2023-04-01T05:59:45.643Z,98434.84
2023-04-01T06:02:16.395Z,98431.16
2023-04-01T06:04:44.668Z,98435.66
2023-04-01T06:07:21.010Z,98431.75
2023-04-01T06:09:49.536Z,98433.19
2023-04-01T06:12:45.350Z,98430.09
2023-04-01T06:15:39.582Z,98439.28
2023-04-01T06:18:32.467Z,98437.03
2023-04-01T06:21:10.753Z,98442.53
2023-04-01T06:24:21.124Z,98443.94
2023-04-01T06:27:19.958Z,98439.81
2023-04-01T06:30:45.804Z,98451.44
2023-04-01T06:34:00.127Z,98447.53
2023-04-01T06:36:58.955Z,98450.78
2023-04-01T06:39:38.417Z,98455.69
2023-04-01T06:42:12.770Z,98457.91
2023-04-01T06:45:18.498Z,98459.31
2023-04-01T06:48:01.892Z,98462.56
2023-04-01T06:50:44.862Z,98462.13
2023-04-01T06:53:32.104Z,98461.72
2023-04-01T06:56:08.602Z,98461.88
2023-04-01T06:58:52.281Z,98456.31
2023-04-01T07:01:28.609Z,98459.16
2023-04-01T07:04:04.255Z,98464.88
2023-04-01T07:06:48.537Z,98463.75
2023-04-01T07:09:44.190Z,98469.03
2023-04-01T07:12:57.228Z,98456.47
2023-04-01T07:15:35.153Z,98468.69
2023-04-01T07:18:23.757Z,98466.34
2023-04-01T07:20:54.174Z,98468.06
2023-04-01T07:23:30.999Z,98470.78
2023-04-01T07:26:09.186Z,98475.97
2023-04-01T07:28:37.295Z,98474.28
2023-04-01T07:31:31.541Z,98473.69
2023-04-01T07:34:15.375Z,98472.66
2023-04-01T07:36:58.380Z,98475.97
2023-04-01T07:39:30.060Z,98486.06
2023-04-01T07:42:19.270Z,98485.25
2023-04-01T07:45:26.695Z,98486.06
2023-04-01T07:48:06.942Z,98492.78
2023-04-01T07:51:19.966Z,98491.63
2023-04-01T07:54:51.160Z,98492.66
2023-04-01T07:57:36.742Z,98500.72
2023-04-01T08:00:49.368Z,98503.44
2023-04-01T08:03:58.889Z,98505.44
2023-04-01T08:06:47.736Z,98500.75
2023-04-01T08:09:42.310Z,98509.91
2023-04-01T08:12:14.922Z,98513.03
2023-04-01T08:15:11.219Z,98514.53
2023-04-01T08:18:10.562Z,98518.81
2023-04-01T08:21:16.782Z,98515.78
2023-04-01T08:23:50.252Z,98526.22
2023-04-01T08:26:42.267Z,98524.28
2023-04-01T08:29:19.096Z,98519.81
2023-04-01T08:32:04.325Z,98523.94
2023-04-01T08:34:44.981Z,98527.34
2023-04-01T08:37:26.752Z,98526.44
2023-04-01T08:40:53.230Z,98524.97
2023-04-01T08:44:04.399Z,98523.59
2023-04-01T08:47:07.841Z,98526.78
2023-04-01T08:50:09.211Z,98534.69
2023-04-01T08:52:55.006Z,98526.88
2023-04-01T08:56:09.326Z,98530.84
2023-04-01T08:59:11.343Z,98521.88
2023-04-01T09:02:05.763Z,98525.59
2023-04-01T09:05:01.525Z,98532.31
2023-04-01T09:07:53.349Z,98520.97
2023-04-01T09:10:42.432Z,98525.13
2023-04-01T09:13:13.297Z,98520.75
2023-04-01T09:16:12.576Z,98523.06
2023-04-01T09:19:27.216Z,98530.34
2023-04-01T09:22:22.487Z,98529.41
2023-04-01T09:25:25.667Z,98526.84
2023-04-01T09:28:14.002Z,98524.41
2023-04-01T09:31:25.904Z,98532.09
2023-04-01T09:34:41.563Z,98528.94
2023-04-01T09:37:37.084Z,98529.41
2023-04-01T09:40:47.346Z,98534.28
2023-04-01T09:43:47.584Z,98537.19
2023-04-01T09:46:30.310Z,98531.50
2023-04-01T09:49:35.128Z,98537.88
2023-04-01T09:52:17.955Z,98535.56
2023-04-01T09:55:06.752Z,98537.41
2023-04-01T09:58:05.750Z,98541.50
2023-04-01T10:00:56.934Z,98536.59
2023-04-01T10:04:04.249Z,98544.50
2023-04-01T10:06:53.870Z,98541.13
2023-04-01T10:09:52.338Z,98543.06
2023-04-01T10:12:20.983Z,98547.94
2023-04-01T10:15:19.248Z,98539.22
2023-04-01T10:18:06.200Z,98541.53
2023-04-01T10:20:46.367Z,98548.63
2023-04-01T10:23:25.120Z,98541.72
2023-04-01T10:26:50.260Z,98543.94
2023-04-01T10:29:58.764Z,98545.06
2023-04-01T10:32:48.428Z,98538.78
2023-04-01T10:36:15.724Z,98542.13
2023-04-01T10:39:05.538Z,98544.66
2023-04-01T10:42:07.385Z,98551.84
2023-04-01T10:44:59.900Z,98549.06
2023-04-01T10:48:07.764Z,98549.66
2023-04-01T10:51:18.854Z,98552.88
2023-04-01T10:54:17.897Z,98549.44
2023-04-01T10:57:30.764Z,98548.91
2023-04-01T11:00:23.642Z,98549.16
2023-04-01T11:03:29.112Z,98549.69
2023-04-01T11:07:04.805Z,98557.63
2023-04-01T11:10:06.657Z,98547.41
2023-04-01T11:12:52.456Z,98549.25
2023-04-01T11:15:23.901Z,98553.09
2023-04-01T11:18:22.908Z,98551.63
2023-04-01T11:21:18.020Z,98549.91
2023-04-01T11:24:06.104Z,98557.38
2023-04-01T11:26:55.445Z,98551.94
2023-04-01T11:29:59.763Z,98561.28
2023-04-01T11:32:50.289Z,98560.03
2023-04-01T11:35:46.483Z,98560.22
2023-04-01T11:38:29.171Z,98555.81
2023-04-01T11:41:29.991Z,98557.28
2023-04-01T11:44:19.946Z,98565.88
2023-04-01T11:47:16.787Z,98561.09
2023-04-01T11:49:59.335Z,98561.50
2023-04-01T11:52:54.876Z,98569.69
2023-04-01T11:55:44.012Z,98580.19
2023-04-01T11:58:59.278Z,98583.81
2023-04-01T12:02:10.543Z,98582.06
2023-04-01T12:05:15.082Z,98593.59
2023-04-01T12:07:57.298Z,98584.34
2023-04-01T12:10:53.158Z,98588.94
2023-04-01T12:14:04.534Z,98588.31
2023-04-01T12:16:51.517Z,98583.69
2023-04-01T12:19:35.195Z,98584.59
2023-04-01T12:22:09.606Z,98594.53
2023-04-01T12:25:28.111Z,98589.81
2023-04-01T12:28:17.331Z,98590.41
2023-04-01T12:30:50.983Z,98595.53
2023-04-01T12:34:09.604Z,98592.41
2023-04-01T12:36:54.320Z,98596.69
2023-04-01T12:39:22.780Z,98594.84
2023-04-01T12:42:01.921Z,98606.34
2023-04-01T12:45:07.545Z,98608.75
2023-04-01T12:47:42.061Z,98603.00
2023-04-01T12:50:54.404Z,98608.09
2023-04-01T12:53:48.721Z,98610.69
2023-04-01T12:56:44.300Z,98611.41
2023-04-01T12:59:45.820Z,98607.84
2023-04-01T13:02:53.368Z,98619.84
2023-04-01T13:06:30.592Z,98618.72
2023-04-01T13:09:18.178Z,98624.34
2023-04-01T13:12:31.908Z,98619.34
2023-04-01T13:15:23.519Z,98626.56
2023-04-01T13:17:52.074Z,98618.38
2023-04-01T13:21:04.186Z,98624.91
2023-04-01T13:24:09.056Z,98633.75
2023-04-01T13:27:17.080Z,98632.72
2023-04-01T13:30:03.098Z,98629.69
2023-04-01T13:32:43.461Z,98634.00
2023-04-01T13:35:19.432Z,98635.38
2023-04-01T13:38:40.329Z,98640.28
2023-04-01T13:41:50.896Z,98641.09
2023-04-01T13:45:02.529Z,98644.69
2023-04-01T13:47:55.689Z,98650.69
2023-04-01T13:50:47.737Z,98648.56
2023-04-01T13:53:53.758Z,98644.69
2023-04-01T13:56:45.441Z,98646.19
2023-04-01T13:59:22.881Z,98643.75
2023-04-01T14:02:56.886Z,98649.31
2023-04-01T14:05:41.873Z,98645.03
2023-04-01T14:08:44.718Z,98651.59
2023-04-01T14:11:21.057Z,98647.53
2023-04-01T14:14:13.824Z,98643.47
2023-04-01T14:17:00.053Z,98651.94
2023-04-01T14:20:04.844Z,98655.88
2023-04-01T14:22:52.112Z,98654.44
2023-04-01T14:26:12.888Z,98662.06
2023-04-01T14:29:14.535Z,98664.41
2023-04-01T14:32:15.302Z,98662.38
2023-04-01T14:35:14.693Z,98659.94
2023-04-01T14:38:27.866Z,98659.59
2023-04-01T14:41:21.614Z,98668.25
2023-04-01T14:44:07.810Z,98662.75
2023-04-01T14:46:41.460Z,98660.50
2023-04-01T14:49:45.394Z,98669.78
2023-04-01T14:52:29.417Z,98671.06
2023-04-01T14:55:00.052Z,98666.75
2023-04-01T14:57:30.989Z,98672.31
2023-04-01T15:00:20.506Z,98674.97
2023-04-01T15:03:30.121Z,98678.47
2023-04-01T15:06:48.761Z,98679.50
2023-04-01T15:09:53.931Z,98686.31
2023-04-01T15:12:45.630Z,98687.13
2023-04-01T15:15:39.231Z,98688.16
2023-04-01T15:18:54.191Z,98688.38
2023-04-01T15:21:48.063Z,98682.88
2023-04-01T15:24:19.497Z,98692.59
2023-04-01T15:27:16.832Z,98695.47
2023-04-01T15:30:22.550Z,98687.44
2023-04-01T15:33:16.703Z,98691.75
2023-04-01T15:36:12.567Z,98693.66
2023-04-01T15:38:55.249Z,98702.13
2023-04-01T15:41:44.189Z,98695.38
2023-04-01T15:45:04.055Z,98707.53
2023-04-01T15:48:24.996Z,98700.19
2023-04-01T15:51:05.864Z,98699.38
2023-04-01T15:53:55.155Z,98710.22
2023-04-01T15:57:02.493Z,98711.69
2023-04-01T16:00:03.754Z,98710.41
2023-04-01T16:02:48.469Z,98723.75
2023-04-01T16:05:43.956Z,98715.31
2023-04-01T16:08:25.004Z,98717.53
2023-04-01T16:11:25.060Z,98728.81
2023-04-01T16:13:56.601Z,98725.31
2023-04-01T16:17:08.482Z,98732.53
2023-04-01T16:19:52.383Z,98728.81
2023-04-01T16:22:54.627Z,98738.28
2023-04-01T16:25:43.454Z,98737.91
2023-04-01T16:28:36.686Z,98734.63
2023-04-01T16:31:07.806Z,98736.66
2023-04-01T16:33:42.408Z,98746.94
2023-04-01T16:36:31.192Z,98753.09
2023-04-01T16:39:32.219Z,98751.44
2023-04-01T16:42:47.020Z,98751.69
2023-04-01T16:45:45.847Z,98760.47
2023-04-01T16:48:28.057Z,98766.22
2023-04-01T16:51:15.648Z,98771.38
2023-04-01T16:54:23.396Z,98781.22
2023-04-01T16:57:11.824Z,98783.88
2023-04-01T17:00:21.773Z,98784.06
2023-04-01T17:03:31.298Z,98792.50
2023-04-01T17:06:30.771Z,98793.75
2023-04-01T17:09:31.058Z,98795.88
2023-04-01T17:12:38.599Z,98808.41
2023-04-01T17:15:36.008Z,98798.38
2023-04-01T17:18:13.371Z,98800.84
2023-04-01T17:21:04.687Z,98810.47
2023-04-01T17:23:50.829Z,98814.59
2023-04-01T17:26:42.615Z,98813.16
2023-04-01T17:29:33.649Z,98823.00
2023-04-01T17:32:42.834Z,98828.50
2023-04-01T17:35:37.223Z,98832.22
2023-04-01T17:38:11.672Z,98835.91
2023-04-01T17:41:14.530Z,98846.59
2023-04-01T17:44:24.349Z,98847.00
2023-04-01T17:47:44.411Z,98855.63
2023-04-01T17:50:26.089Z,98857.72
2023-04-01T17:53:19.890Z,98863.47
2023-04-01T17:56:06.746Z,98864.50
2023-04-01T17:58:47.490Z,98874.56
2023-04-01T18:01:39.791Z,98874.34
2023-04-01T18:04:55.267Z,98869.44
2023-04-01T18:07:55.748Z,98884.00
2023-04-01T18:10:51.418Z,98888.31
2023-04-01T18:13:56.480Z,98884.00
2023-04-01T18:16:46.588Z,98887.50
2023-04-01T18:19:45.469Z,98897.75
2023-04-01T18:22:45.656Z,98906.56
2023-04-01T18:25:41.880Z,98905.34
2023-04-01T18:28:38.843Z,98916.41
2023-04-01T18:31:51.867Z,98914.16
2023-04-01T18:35:03.001Z,98921.31
2023-04-01T18:37:37.275Z,98927.47
2023-04-01T18:40:45.244Z,98931.16
2023-04-01T18:43:57.282Z,98938.53
2023-04-01T18:46:43.509Z,98941.19
2023-04-01T18:49:17.890Z,98942.22
2023-04-01T18:52:29.862Z,98948.13
2023-04-01T18:55:08.784Z,98945.09
2023-04-01T18:57:50.531Z,98956.34
2023-04-01T19:00:30.905Z,98968.00
2023-04-01T19:03:18.632Z,98964.94
2023-04-01T19:05:50.106Z,98973.75
2023-04-01T19:08:31.351Z,98973.16
2023-04-01T19:11:20.362Z,98988.31
2023-04-01T19:14:06.228Z,98986.25
2023-04-01T19:17:24.902Z,98991.56
2023-04-01T19:20:35.505Z,98993.81
2023-04-01T19:23:32.611Z,99005.69
2023-04-01T19:26:30.342Z,99005.66
2023-04-01T19:29:17.704Z,99008.72
2023-04-01T19:32:06.951Z,99005.88
2023-04-01T19:35:00.781Z,99006.47
2023-04-01T19:37:56.898Z,99023.38
2023-04-01T19:40:54.391Z,99027.69
2023-04-01T19:44:07.556Z,99029.88
2023-04-01T19:46:51.488Z,99037.25
2023-04-01T19:49:50.094Z,99037.84
2023-04-01T19:52:39.089Z,99038.59
2023-04-01T19:55:32.231Z,99040.81
2023-04-01T19:58:07.099Z,99049.63
2023-04-01T20:00:55.890Z,99054.50
2023-04-01T20:03:59.733Z,99063.28
2023-04-01T20:07:05.006Z,99068.34
2023-04-01T20:10:19.149Z,99076.03
2023-04-01T20:13:14.230Z,99075.19
2023-04-01T20:15:47.204Z,99076.63
2023-04-01T20:18:35.238Z,99083.34
2023-04-01T20:21:18.554Z,99096.97
2023-04-01T20:24:19.685Z,99099.81
2023-04-01T20:27:27.548Z,99099.06
2023-04-01T20:29:59.055Z,99108.88
2023-04-01T20:32:57.912Z,99105.97
2023-04-01T20:35:32.797Z,99110.34
2023-04-01T20:38:36.729Z,99133.97
2023-04-01T20:41:27.756Z,99121.84
2023-04-01T20:44:27.954Z,99125.56
2023-04-01T20:47:08.067Z,99131.13
2023-04-01T20:50:26.271Z,99132.78
2023-04-01T20:52:58.654Z,99132.91
2023-04-01T20:56:23.542Z,99141.59
2023-04-01T20:59:24.785Z,99143.38
2023-04-01T21:02:34.722Z,99156.06
2023-04-01T21:05:48.004Z,99147.13
2023-04-01T21:08:22.183Z,99171.25
2023-04-01T21:11:02.245Z,99177.22
2023-04-01T21:13:56.085Z,99178.31
2023-04-01T21:16:51.521Z,99190.28
2023-04-01T21:20:15.955Z,99193.78
2023-04-01T21:23:02.298Z,99208.66
2023-04-01T21:25:43.339Z,99197.88
2023-04-01T21:28:31.727Z,99212.53
2023-04-01T21:31:46.984Z,99211.59
2023-04-01T21:34:37.065Z,99217.06
2023-04-01T21:37:49.095Z,99218.63
2023-04-01T21:40:55.084Z,99231.25
2023-04-01T21:44:04.255Z,99245.44
2023-04-01T21:47:05.514Z,99243.66
2023-04-01T21:50:17.360Z,99246.00
2023-04-01T21:52:48.866Z,99249.13
2023-04-01T21:56:04.747Z,99265.91
2023-04-01T21:59:26.985Z,99256.00
2023-04-01T22:02:36.331Z,99270.63
2023-04-01T22:05:22.108Z,99273.81
2023-04-01T22:08:36.816Z,99272.19
2023-04-01T22:11:22.806Z,99277.38
2023-04-01T22:14:07.705Z,99285.56
2023-04-01T22:17:04.254Z,99286.72
2023-04-01T22:19:51.750Z,99291.88
2023-04-01T22:22:37.019Z,99294.88
2023-04-01T22:25:28.944Z,99293.78
2023-04-01T22:28:01.747Z,99298.25
2023-04-01T22:30:42.604Z,99304.16
2023-04-01T22:33:14.997Z,99320.19
2023-04-01T22:36:21.838Z,99314.50
2023-04-01T22:39:09.156Z,99315.03
2023-04-01T22:41:56.009Z,99321.81
2023-04-01T22:44:37.463Z,99335.75
2023-04-01T22:47:16.102Z,99335.78
2023-04-01T22:49:51.011Z,99348.69
2023-04-01T22:52:49.254Z,99336.19
2023-04-01T22:55:28.506Z,99342.31
2023-04-01T22:58:02.719Z,99352.09
2023-04-01T23:01:00.829Z,99348.94
2023-04-01T23:03:35.684Z,99348.44
2023-04-01T23:06:07.092Z,99354.56
2023-04-01T23:09:11.731Z,99364.97
2023-04-01T23:11:57.403Z,99369.75
2023-04-01T23:14:32.881Z,99372.09
2023-04-01T23:17:19.956Z,99375.91
2023-04-01T23:20:00.525Z,99375.72
2023-04-01T23:22:40.451Z,99384.47
2023-04-01T23:25:39.199Z,99392.56
2023-04-01T23:28:16.868Z,99389.44
2023-04-01T23:30:45.571Z,99416.84
2023-04-01T23:33:22.167Z,99412.19
2023-04-01T23:36:07.178Z,99423.06
2023-04-01T23:38:44.295Z,99419.94
2023-04-01T23:41:30.188Z,99420.94
2023-04-01T23:44:05.312Z,99433.97
2023-04-01T23:46:36.579Z,99433.47
2023-04-01T23:49:06.251Z,99431.44
2023-04-01T23:51:53.069Z,99443.53
2023-04-01T23:54:44.195Z,99447.78
2023-04-01T23:57:19.487Z,99448.94
